Time;durP1;ratioP1;P1;durP2;ratioP2;P2;SDS_P1;SDS_P2;PMS_P1;PMS_P2;Temp;Humidity;BMP_temperature;BMP_pressure;BME280_temperature;BME280_humidity;BME280_pressure;Samples;Min_cycle;Max_cycle;Signal;HPM_P1;HPM_P2
2023/02/17 00:01:37;;;;;;;23.15;11.98;;;;;;;5.65;100.00;99009.41;4195690;28;20044;-77
2023/02/17 00:03:37;;;;;;;22.75;13.20;;;;;;;5.67;100.00;99017.31;4189047;28;20072;-78
2023/02/17 00:05:39;;;;;;;21.35;12.95;;;;;;;5.84;100.00;99017.19;4194599;28;20136;-77
2023/02/17 00:07:39;;;;;;;22.52;13.45;;;;;;;5.82;100.00;99012.03;4192990;28;20045;-77
2023/02/17 00:09:39;;;;;;;23.23;14.25;;;;;;;5.85;100.00;99018.81;4191615;28;20090;-77
2023/02/17 00:11:40;;;;;;;22.27;13.07;;;;;;;5.89;100.00;99023.31;4192215;28;20268;-78
2023/02/17 00:13:41;;;;;;;20.92;12.23;;;;;;;5.91;100.00;99015.56;4190459;28;20428;-77
2023/02/17 00:15:41;;;;;;;19.95;11.93;;;;;;;5.92;100.00;99016.34;4190545;28;20036;-77
2023/02/17 00:17:41;;;;;;;23.27;13.27;;;;;;;5.83;100.00;99016.41;4190918;28;20040;-78
2023/02/17 00:19:42;;;;;;;22.23;13.98;;;;;;;5.85;100.00;99019.59;4191344;28;20461;-78
2023/02/17 00:21:43;;;;;;;23.75;12.77;;;;;;;5.81;100.00;99007.69;4188590;28;20233;-78
2023/02/17 00:23:44;;;;;;;21.30;12.88;;;;;;;5.78;100.00;99007.53;4193768;28;20055;-78
2023/02/17 00:25:44;;;;;;;21.27;13.32;;;;;;;5.81;100.00;99012.38;4195831;28;20048;-77
2023/02/17 00:27:44;;;;;;;19.77;12.57;;;;;;;5.82;100.00;98997.50;4192544;28;20139;-77
2023/02/17 00:29:45;;;;;;;24.45;13.18;;;;;;;5.77;100.00;99003.19;4191358;28;20048;-78
2023/02/17 00:31:45;;;;;;;21.42;12.35;;;;;;;5.65;100.00;98992.94;4190925;28;20052;-78
2023/02/17 00:33:47;;;;;;;22.27;13.77;;;;;;;5.59;100.00;98994.25;4189890;28;20508;-78
2023/02/17 00:35:47;;;;;;;23.55;13.38;;;;;;;5.59;100.00;98991.50;4190224;28;20139;-78
2023/02/17 00:37:47;;;;;;;25.45;13.25;;;;;;;5.58;100.00;98981.69;4189189;28;20068;-78
2023/02/17 00:39:48;;;;;;;24.20;13.88;;;;;;;5.57;100.00;98989.09;4191135;28;20158;-78
2023/02/17 00:41:48;;;;;;;21.92;13.63;;;;;;;5.57;100.00;98980.06;4189659;28;20071;-78
2023/02/17 00:43:48;;;;;;;21.02;13.15;;;;;;;5.59;100.00;98980.53;4193680;28;20041;-78
2023/02/17 00:45:49;;;;;;;21.95;13.85;;;;;;;5.69;100.00;98976.59;4191220;28;20052;-78
2023/02/17 00:47:49;;;;;;;21.48;14.18;;;;;;;5.66;100.00;98966.28;4190668;28;20037;-77
2023/02/17 00:49:49;;;;;;;22.15;13.27;;;;;;;5.77;100.00;98965.53;4194280;28;20033;-78
2023/02/17 00:51:50;;;;;;;22.70;13.18;;;;;;;5.78;100.00;98952.63;4196119;28;20083;-78
2023/02/17 00:53:51;;;;;;;22.92;14.10;;;;;;;5.82;100.00;98957.13;4194384;28;20140;-78
2023/02/17 00:55:51;;;;;;;25.23;14.18;;;;;;;5.82;100.00;98950.81;4190163;28;20040;-78
2023/02/17 00:57:51;;;;;;;21.52;13.65;;;;;;;5.81;100.00;98946.47;4193013;28;20033;-78
2023/02/17 00:59:52;;;;;;;21.38;13.68;;;;;;;5.86;100.00;98952.56;4190465;28;20128;-77
2023/02/17 01:01:52;;;;;;;20.67;13.15;;;;;;;5.94;100.00;98942.66;4194361;28;20097;-77
2023/02/17 01:03:52;;;;;;;22.30;13.43;;;;;;;5.94;100.00;98944.63;4194359;28;20486;-78
2023/02/17 01:05:54;;;;;;;21.80;12.88;;;;;;;5.90;100.00;98942.56;4190687;28;20442;-78
2023/02/17 01:07:54;;;;;;;25.63;13.30;;;;;;;5.98;100.00;98945.56;4190474;28;20029;-78
2023/02/17 01:09:55;;;;;;;23.60;13.48;;;;;;;5.95;100.00;98946.22;4191383;28;20044;-78
2023/02/17 01:11:55;;;;;;;22.80;13.18;;;;;;;6.00;100.00;98946.03;4190704;28;20500;-78
2023/02/17 01:13:56;;;;;;;18.85;12.07;;;;;;;6.07;100.00;98927.88;4189929;28;20044;-78
2023/02/17 01:15:57;;;;;;;21.00;12.20;;;;;;;6.18;100.00;98937.28;4193150;28;20040;-77
2023/02/17 01:17:57;;;;;;;22.15;13.07;;;;;;;6.19;100.00;98938.09;4193560;28;20052;-77
2023/02/17 01:19:58;;;;;;;19.77;12.48;;;;;;;6.19;100.00;98938.88;4194095;28;20385;-78
2023/02/17 01:21:58;;;;;;;20.13;12.68;;;;;;;6.23;100.00;98943.72;4193287;28;20040;-77
2023/02/17 01:24:01;;;;;;;23.08;13.43;;;;;;;6.23;100.00;98952.78;4193083;28;20040;-77
2023/02/17 01:26:02;;;;;;;19.92;12.30;;;;;;;6.23;100.00;98952.78;4197358;28;20052;-77
2023/02/17 01:28:02;;;;;;;22.63;13.80;;;;;;;6.15;100.00;98962.69;4194082;28;20027;-78
2023/02/17 01:30:04;;;;;;;24.67;14.00;;;;;;;6.15;100.00;98968.19;4194155;28;20036;-78
2023/02/17 01:32:04;;;;;;;25.90;14.18;;;;;;;6.09;100.00;98968.72;4195217;28;20032;-78
2023/02/17 01:34:05;;;;;;;22.90;14.85;;;;;;;6.02;100.00;98966.50;4194071;28;20036;-78
2023/02/17 01:36:08;;;;;;;21.73;13.52;;;;;;;5.96;100.00;98959.63;4192633;28;20457;-78
2023/02/17 01:38:08;;;;;;;21.05;13.57;;;;;;;5.93;100.00;98964.97;4194039;28;20139;-78
2023/02/17 01:40:11;;;;;;;20.88;13.80;;;;;;;5.87;100.00;98965.13;4193458;28;20475;-78
2023/02/17 01:42:19;;;;;;;23.67;13.52;;;;;;;5.85;100.00;98967.44;4193419;28;20032;-77
2023/02/17 01:44:23;;;;;;;23.23;13.88;;;;;;;5.87;100.00;98969.84;4192410;28;20037;-78
2023/02/17 01:46:23;;;;;;;20.23;13.73;;;;;;;5.86;100.00;98960.78;4193309;28;20109;-78
2023/02/17 01:48:46;;;;;;;23.42;14.15;;;;;;;5.88;100.00;98968.72;4194204;28;20060;-78
2023/02/17 01:50:58;;;;;;;19.98;12.73;;;;;;;5.82;100.00;98968.09;4193098;28;20036;-78
2023/02/17 01:53:01;;;;;;;22.50;13.23;;;;;;;5.81;100.00;98958.25;4192401;28;20101;-78
2023/02/17 01:55:07;;;;;;;21.85;12.75;;;;;;;5.81;100.00;98954.72;4192062;28;20342;-78
2023/02/17 01:57:08;;;;;;;19.60;12.65;;;;;;;5.76;100.00;98946.66;4192620;28;20494;-78
2023/02/17 01:59:18;;;;;;;23.20;12.57;;;;;;;5.80;100.00;98955.84;4195460;28;20357;-78
2023/02/17 02:01:19;;;;;;;17.75;11.57;;;;;;;5.74;100.00;98936.03;4194482;28;20048;-78
2023/02/17 02:03:20;;;;;;;19.08;11.82;;;;;;;5.74;100.00;98944.25;4192892;28;20189;-78
2023/02/17 02:05:21;;;;;;;20.88;11.85;;;;;;;5.70;100.00;98943.31;4192051;28;20349;-78
2023/02/17 02:07:27;;;;;;;20.13;12.23;;;;;;;5.65;100.00;98938.03;4191653;28;20044;-78
2023/02/17 02:09:35;;;;;;;20.15;12.10;;;;;;;5.66;100.00;98928.66;4194377;28;20040;-78
2023/02/17 02:11:36;;;;;;;18.75;11.65;;;;;;;5.67;100.00;98929.47;4193663;28;20075;-78
2023/02/17 02:13:36;;;;;;;16.45;11.48;;;;;;;5.61;100.00;98924.16;4188595;28;20044;-78
2023/02/17 02:15:46;;;;;;;16.45;10.98;;;;;;;5.67;100.00;98913.00;4189984;28;20063;-78
2023/02/17 02:17:55;;;;;;;19.05;11.38;;;;;;;5.68;100.00;98918.13;4191331;28;20048;-78
2023/02/17 02:20:20;;;;;;;15.55;10.02;;;;;;;5.69;100.00;98906.00;4192719;28;20055;-78
2023/02/17 02:22:30;;;;;;;16.33;10.43;;;;;;;5.75;100.00;98906.63;4188062;28;20039;-78
2023/02/17 02:24:39;;;;;;;17.58;10.73;;;;;;;5.72;100.00;98910.06;4192166;28;20480;-78
2023/02/17 02:27:12;;;;;;;15.10;9.60;;;;;;;5.78;100.00;98912.22;4194235;28;20051;-78
2023/02/17 02:29:43;;;;;;;15.13;8.40;;;;;;;5.81;100.00;98900.59;4188989;28;20409;-78
2023/02/17 02:31:56;;;;;;;15.40;8.43;;;;;;;5.83;100.00;98903.00;4185270;28;20182;-77
2023/02/17 02:34:09;;;;;;;12.63;8.32;;;;;;;5.84;100.00;98902.66;4187524;28;20055;-78
2023/02/17 02:36:12;;;;;;;;;;;;;;;5.89;100.00;98898.91;4190464;28;20063;-78
2023/02/17 02:38:31;;;;;;;11.77;7.63;;;;;;;5.92;100.00;98890.03;4189515;28;20010;-78
2023/02/17 02:40:36;;;;;;;13.90;7.05;;;;;;;5.95;100.00;98894.84;4192147;28;20060;-78
2023/02/17 02:42:38;;;;;;;9.80;6.15;;;;;;;6.03;100.00;98891.19;4197728;28;20044;-78
2023/02/17 02:44:39;;;;;;;11.02;6.70;;;;;;;6.02;100.00;98881.38;4195810;28;20125;-78
2023/02/17 02:46:39;;;;;;;11.23;6.68;;;;;;;6.06;100.00;98881.50;4197254;28;20133;-78
2023/02/17 02:48:40;;;;;;;10.60;6.78;;;;;;;6.05;100.00;98891.69;4193708;28;20372;-78
2023/02/17 02:50:54;;;;;;;9.82;6.47;;;;;;;6.03;100.00;98885.72;4193434;28;20582;-78
2023/02/17 02:53:17;;;;;;;9.23;5.78;;;;;;;6.05;100.00;98883.44;4197243;28;20055;-78
2023/02/17 02:55:56;;;;;;;10.23;6.43;;;;;;;6.00;100.00;98877.34;4192824;28;20462;-78
2023/02/17 02:58:26;;;;;;;10.27;6.63;;;;;;;5.99;100.00;98856.53;4186915;28;20051;-78
2023/02/17 03:00:44;;;;;;;11.07;5.95;;;;;;;6.04;100.00;98857.13;4197114;28;20350;-78
2023/02/17 03:02:58;;;;;;;8.70;6.25;;;;;;;5.99;100.00;98854.59;4195807;28;20491;-78
2023/02/17 03:05:07;;;;;;;9.57;6.30;;;;;;;5.93;100.00;98846.88;4194834;28;20137;-78
2023/02/17 03:07:19;;;;;;;10.45;6.57;;;;;;;5.99;100.00;98851.84;4193926;28;20067;-78
2023/02/17 03:09:23;;;;;;;10.15;6.63;;;;;;;5.97;100.00;98851.38;4192229;28;20510;-78
2023/02/17 03:11:33;;;;;;;9.32;6.47;;;;;;;6.01;100.00;98846.78;4191583;28;20056;-78
2023/02/17 03:13:38;;;;;;;8.85;6.35;;;;;;;5.99;100.00;98845.53;4194128;28;20067;-78
2023/02/17 03:15:38;;;;;;;8.38;6.07;;;;;;;6.00;100.00;98836.97;4194716;28;20102;-78
2023/02/17 03:17:39;;;;;;;9.77;6.10;;;;;;;6.00;100.00;98841.66;4192597;28;20060;-78
2023/02/17 03:19:40;;;;;;;9.45;6.00;;;;;;;6.04;100.00;98843.41;4193767;28;20039;-78
2023/02/17 03:21:46;;;;;;;9.88;6.63;;;;;;;6.02;100.00;98842.91;4199668;28;20506;-79
2023/02/17 03:23:46;;;;;;;8.35;5.80;;;;;;;6.01;100.00;98835.00;4191707;28;20494;-78
2023/02/17 03:25:47;;;;;;;10.13;6.18;;;;;;;6.05;100.00;98842.25;4192104;28;20049;-78
2023/02/17 03:27:47;;;;;;;9.68;6.53;;;;;;;6.10;100.00;98850.25;4192895;28;20113;-78
2023/02/17 03:29:47;;;;;;;8.65;5.70;;;;;;;6.14;100.00;98840.22;4191210;28;20040;-78
2023/02/17 03:31:48;;;;;;;8.98;5.88;;;;;;;6.15;100.00;98838.25;4191772;28;20189;-78
2023/02/17 03:33:48;;;;;;;9.70;6.40;;;;;;;6.14;100.00;98826.47;4196438;28;20041;-78
2023/02/17 03:35:48;;;;;;;9.27;5.72;;;;;;;6.17;100.00;98817.53;4191414;28;20049;-78
2023/02/17 03:37:49;;;;;;;8.77;6.47;;;;;;;6.18;100.00;98819.13;4191552;28;20068;-78
2023/02/17 03:39:49;;;;;;;9.63;6.32;;;;;;;6.15;100.00;98814.34;4191807;28;20131;-78
2023/02/17 03:41:50;;;;;;;10.23;7.18;;;;;;;6.16;100.00;98835.16;4191476;28;20044;-78
2023/02/17 03:43:50;;;;;;;10.95;7.05;;;;;;;6.07;100.00;98820.72;4190785;28;20528;-78
2023/02/17 03:45:51;;;;;;;11.25;7.47;;;;;;;6.11;100.00;98823.59;4193149;28;20044;-78
2023/02/17 03:47:51;;;;;;;10.70;7.40;;;;;;;6.15;100.00;98821.78;4193960;28;20079;-78
2023/02/17 03:49:51;;;;;;;11.52;7.25;;;;;;;6.16;100.00;98829.69;4193494;28;20062;-79
2023/02/17 03:51:52;;;;;;;13.85;8.45;;;;;;;6.23;100.00;98837.38;4194261;28;20075;-78
2023/02/17 03:53:52;;;;;;;13.07;8.50;;;;;;;6.23;100.00;98833.81;4190641;28;20476;-78
2023/02/17 03:55:52;;;;;;;13.55;8.10;;;;;;;6.18;100.00;98835.63;4191007;28;20037;-78
2023/02/17 03:57:53;;;;;;;14.65;7.55;;;;;;;6.15;100.00;98827.28;4192662;28;20468;-78
2023/02/17 03:59:53;;;;;;;13.80;8.48;;;;;;;6.16;100.00;98829.69;4191339;28;20052;-78
2023/02/17 04:01:53;;;;;;;15.07;8.77;;;;;;;6.16;100.00;98832.41;4191238;28;20040;-78
2023/02/17 04:03:54;;;;;;;12.93;8.52;;;;;;;6.20;100.00;98827.84;4190409;28;20047;-78
2023/02/17 04:05:54;;;;;;;14.27;8.52;;;;;;;6.19;100.00;98830.94;4191105;28;20075;-78
2023/02/17 04:07:55;;;;;;;12.63;8.13;;;;;;;6.22;100.00;98830.25;4191361;28;20037;-78
2023/02/17 04:09:55;;;;;;;12.50;8.77;;;;;;;6.19;100.00;98828.97;4190471;28;20111;-78
2023/02/17 04:11:55;;;;;;;14.13;9.05;;;;;;;6.15;100.00;98828.06;4191793;28;20166;-78
2023/02/17 04:13:56;;;;;;;13.88;8.65;;;;;;;6.16;100.00;98835.16;4190517;28;20047;-78
2023/02/17 04:15:56;;;;;;;13.63;8.45;;;;;;;6.16;100.00;98829.69;4191676;28;20358;-78
2023/02/17 04:17:56;;;;;;;12.73;8.88;;;;;;;6.18;100.00;98827.38;4189975;28;20682;-78
2023/02/17 04:19:57;;;;;;;12.70;9.18;;;;;;;6.27;100.00;98835.53;4193671;28;20124;-78
2023/02/17 04:21:57;;;;;;;13.55;8.98;;;;;;;6.39;100.00;98834.75;4190117;28;20136;-78
2023/02/17 04:24:02;;;;;;;16.80;8.50;;;;;;;6.39;100.00;98830.06;4187388;28;20469;-78
2023/02/17 04:26:04;;;;;;;13.48;8.60;;;;;;;6.35;100.00;98826.38;4191724;28;20239;-78
2023/02/17 04:28:05;;;;;;;13.70;8.70;;;;;;;6.37;100.00;98832.34;4195534;28;20028;-78
2023/02/17 04:30:06;;;;;;;12.07;9.02;;;;;;;6.31;100.00;98832.91;4191528;28;20036;-78
2023/02/17 04:32:06;;;;;;;11.85;8.00;;;;;;;6.38;100.00;98839.47;4187522;28;20487;-79
2023/02/17 04:34:06;;;;;;;13.77;8.82;;;;;;;6.40;100.00;98830.88;4192299;28;20036;-78
2023/02/17 04:36:07;;;;;;;13.35;9.23;;;;;;;6.37;100.00;98834.28;4191877;28;20076;-78
2023/02/17 04:38:09;;;;;;;14.73;9.07;;;;;;;6.35;100.00;98831.06;4190692;28;20055;-78
2023/02/17 04:40:10;;;;;;;17.33;9.82;;;;;;;6.35;100.00;98826.38;4193257;28;20024;-78
2023/02/17 04:42:10;;;;;;;14.13;9.13;;;;;;;6.39;100.00;98821.81;4195364;28;20565;-78
2023/02/17 04:44:10;;;;;;;14.40;8.80;;;;;;;6.36;100.00;98827.19;4192841;28;20151;-79
2023/02/17 04:46:11;;;;;;;14.07;8.82;;;;;;;6.38;100.00;98822.16;4190866;28;20094;-79
2023/02/17 04:48:11;;;;;;;12.50;8.57;;;;;;;6.36;100.00;98814.25;4188832;28;20059;-79
2023/02/17 04:50:11;;;;;;;16.45;10.02;;;;;;;6.34;100.00;98808.28;4195604;28;20040;-78
2023/02/17 04:52:12;;;;;;;13.98;9.02;;;;;;;6.38;100.00;98811.16;4197507;28;20119;-78
2023/02/17 04:54:12;;;;;;;12.48;8.77;;;;;;;6.36;100.00;98805.19;4195375;28;20029;-78
2023/02/17 04:56:12;;;;;;;13.13;8.98;;;;;;;6.42;100.00;98804.63;4199315;28;20037;-78
2023/02/17 04:58:13;;;;;;;13.25;8.68;;;;;;;6.41;100.00;98803.03;4194612;28;20256;-78
2023/02/17 05:00:13;;;;;;;12.23;8.10;;;;;;;6.41;100.00;98791.25;4192951;28;20029;-78
2023/02/17 05:02:14;;;;;;;12.57;8.13;;;;;;;6.44;100.00;98790.53;4193725;28;20017;-78
2023/02/17 05:04:14;;;;;;;14.40;8.52;;;;;;;6.52;100.00;98788.81;4190710;28;20155;-78
2023/02/17 05:06:14;;;;;;;13.43;8.65;;;;;;;6.48;100.00;98783.22;4195488;28;20361;-79
2023/02/17 05:08:15;;;;;;;14.35;9.50;;;;;;;6.46;100.00;98783.56;4195223;28;20024;-79
2023/02/17 05:10:16;;;;;;;12.48;8.48;;;;;;;6.49;100.00;98779.34;4194195;28;20473;-78
2023/02/17 05:12:17;;;;;;;13.38;8.63;;;;;;;6.54;100.00;98773.63;4194417;28;20036;-78
2023/02/17 05:14:17;;;;;;;12.80;8.32;;;;;;;6.56;100.00;98785.06;4197206;28;20067;-78
2023/02/17 05:16:17;;;;;;;12.93;8.93;;;;;;;6.59;100.00;98780.81;4195974;28;20435;-79
2023/02/17 05:18:18;;;;;;;12.30;8.70;;;;;;;6.58;100.00;98774.50;4197652;28;20020;-78
2023/02/17 05:20:18;;;;;;;11.07;7.53;;;;;;;6.63;100.00;98774.28;4188732;28;20024;-78
2023/02/17 05:22:18;;;;;;;11.40;7.63;;;;;;;6.67;100.00;98775.19;4184090;28;20037;-78
2023/02/17 05:24:19;;;;;;;11.48;8.07;;;;;;;6.64;100.00;98756.66;4187060;28;20039;-79
2023/02/17 05:26:19;;;;;;;13.13;8.15;;;;;;;6.78;100.00;98766.47;4187294;28;20029;-78
2023/02/17 05:28:19;;;;;;;10.98;7.55;;;;;;;6.84;100.00;98778.84;4187810;28;20058;-78
2023/02/17 05:30:20;;;;;;;12.60;7.95;;;;;;;6.88;100.00;98774.28;4194067;28;20471;-77
2023/02/17 05:32:22;;;;;;;12.30;7.88;;;;;;;6.88;100.00;98769.56;4192875;28;20056;-78
2023/02/17 05:34:22;;;;;;;12.77;7.07;;;;;;;6.86;100.00;98776.53;4193518;28;20128;-78
2023/02/17 05:36:22;;;;;;;10.20;6.78;;;;;;;6.91;100.00;98774.38;4192491;28;20325;-79
2023/02/17 05:38:22;;;;;;;9.95;7.43;;;;;;;6.91;100.00;98779.06;4189519;28;20452;-79
2023/02/17 05:40:23;;;;;;;11.18;7.63;;;;;;;6.87;100.00;98783.66;4192983;28;20083;-78
2023/02/17 05:42:27;;;;;;;11.45;7.25;;;;;;;6.83;100.00;98785.50;4189797;28;20075;-79
2023/02/17 05:44:28;;;;;;;11.75;7.82;;;;;;;6.78;100.00;98777.47;4191169;28;20105;-78
2023/02/17 05:46:28;;;;;;;10.25;6.95;;;;;;;6.74;100.00;98789.16;4192507;28;20041;-78
2023/02/17 05:48:28;;;;;;;11.55;6.57;;;;;;;6.76;100.00;98797.06;4195308;28;20507;-79
2023/02/17 05:50:29;;;;;;;10.32;6.68;;;;;;;6.78;100.00;98791.22;4192911;28;20067;-78
2023/02/17 05:52:29;;;;;;;10.95;7.47;;;;;;;6.84;100.00;98784.34;4191481;28;20052;-79
2023/02/17 05:54:29;;;;;;;10.23;7.30;;;;;;;6.87;100.00;98789.16;4190977;28;20124;-79
2023/02/17 05:56:30;;;;;;;11.45;7.05;;;;;;;6.90;100.00;98788.47;4082661;28;20125;-79
2023/02/17 05:58:30;;;;;;;11.57;6.43;;;;;;;6.89;100.00;98781.38;4191937;28;20060;-79
2023/02/17 06:00:30;;;;;;;9.57;6.97;;;;;;;6.85;100.00;98785.94;4193358;28;20045;-79
2023/02/17 06:02:31;;;;;;;9.50;6.10;;;;;;;6.92;100.00;98775.16;4191599;28;20028;-78
2023/02/17 06:04:32;;;;;;;9.45;6.53;;;;;;;6.92;100.00;98773.22;4192760;28;20124;-78
2023/02/17 06:06:32;;;;;;;8.75;5.75;;;;;;;6.91;100.00;98785.38;4192762;28;20036;-79
2023/02/17 06:08:33;;;;;;;10.45;6.05;;;;;;;6.93;100.00;98780.31;4192466;28;20377;-78
2023/02/17 06:10:33;;;;;;;8.80;6.13;;;;;;;6.97;100.00;98780.44;4197444;28;20056;-79
2023/02/17 06:12:34;;;;;;;8.35;5.97;;;;;;;7.01;100.00;98781.34;4194655;28;20472;-78
2023/02/17 06:14:34;;;;;;;11.20;6.40;;;;;;;6.93;100.00;98777.56;4191930;28;20037;-79
2023/02/17 06:16:34;;;;;;;8.55;5.85;;;;;;;6.92;100.00;98772.41;4193388;28;20052;-78
2023/02/17 06:18:35;;;;;;;8.75;6.25;;;;;;;6.91;100.00;98768.88;4192373;28;20489;-78
2023/02/17 06:20:35;;;;;;;7.47;5.30;;;;;;;6.91;100.00;98776.31;4192069;28;20044;-78
2023/02/17 06:22:36;;;;;;;8.43;5.55;;;;;;;6.85;100.00;98767.50;4191813;28;20051;-78
2023/02/17 06:24:36;;;;;;;7.47;5.60;;;;;;;6.92;100.00;98773.22;4192431;28;20446;-78
2023/02/17 06:26:36;;;;;;;7.25;5.55;;;;;;;6.94;100.00;98781.91;4192609;28;20036;-78
2023/02/17 06:28:37;;;;;;;7.55;5.78;;;;;;;6.99;100.00;98783.63;4192268;28;20047;-78
2023/02/17 06:30:37;;;;;;;8.00;5.60;;;;;;;7.09;100.00;98785.91;4190153;28;20041;-79
2023/02/17 06:32:37;;;;;;;8.90;5.68;;;;;;;7.16;100.00;98777.06;4194258;28;20110;-78
2023/02/17 06:34:38;;;;;;;7.20;5.45;;;;;;;7.15;100.00;98786.47;4191824;28;20048;-78
2023/02/17 06:36:38;;;;;;;9.23;5.50;;;;;;;7.16;100.00;98791.63;4190595;28;20037;-78
2023/02/17 06:38:38;;;;;;;8.88;5.03;;;;;;;7.11;100.00;98774.53;4192448;28;20048;-79
2023/02/17 06:40:39;;;;;;;7.97;5.10;;;;;;;7.07;100.00;98770.91;4198843;28;20060;-79
2023/02/17 06:42:39;;;;;;;10.68;6.32;;;;;;;7.01;100.00;98773.09;4191905;28;20036;-78
2023/02/17 06:44:39;;;;;;;8.60;5.53;;;;;;;6.99;100.00;98770.69;4192783;28;20048;-79
2023/02/17 06:46:39;;;;;;;6.78;5.10;;;;;;;6.98;100.00;98780.09;4192254;28;20044;-79
2023/02/17 06:48:40;;;;;;;7.95;5.60;;;;;;;7.00;100.00;98769.53;4196460;28;20043;-78
2023/02/17 06:50:40;;;;;;;8.88;5.43;;;;;;;7.02;100.00;98785.69;4194084;28;20036;-78
2023/02/17 06:52:40;;;;;;;7.07;4.75;;;;;;;7.11;100.00;98780.84;4193698;28;20036;-79
2023/02/17 06:54:41;;;;;;;7.20;5.20;;;;;;;7.15;100.00;98780.97;4193092;28;20115;-78
2023/02/17 06:56:41;;;;;;;9.35;5.88;;;;;;;7.13;100.00;98762.06;4190480;28;20044;-78
2023/02/17 06:58:41;;;;;;;9.73;6.85;;;;;;;7.18;100.00;98774.75;4196316;28;20172;-79
2023/02/17 07:00:42;;;;;;;9.80;6.38;;;;;;;7.23;100.00;98769.03;4192359;28;20664;-79
2023/02/17 07:02:42;;;;;;;11.43;7.40;;;;;;;7.29;100.00;98776.69;4191394;28;20513;-79
2023/02/17 07:04:43;;;;;;;9.82;6.25;;;;;;;7.32;100.00;98769.69;4193490;28;20211;-79
2023/02/17 07:06:43;;;;;;;9.45;5.78;;;;;;;7.35;100.00;98754.41;4195267;28;20123;-79
2023/02/17 07:08:44;;;;;;;7.75;5.60;;;;;;;7.29;100.00;98742.88;4192162;28;20105;-78
2023/02/17 07:10:44;;;;;;;8.27;5.53;;;;;;;7.33;100.00;98768.53;4192125;28;20043;-78
2023/02/17 07:12:44;;;;;;;8.65;5.65;;;;;;;7.39;100.00;98755.31;4190569;28;20422;-78
2023/02/17 07:14:45;;;;;;;9.10;6.00;;;;;;;7.37;100.00;98760.38;4192057;28;20108;-78
2023/02/17 07:16:45;;;;;;;9.30;6.05;;;;;;;7.44;100.00;98752.31;4192977;28;20036;-78
2023/02/17 07:18:45;;;;;;;7.63;5.72;;;;;;;7.41;100.00;98750.25;4191438;28;20037;-78
2023/02/17 07:20:47;;;;;;;8.60;5.80;;;;;;;7.42;100.00;98758.16;4194793;28;20501;-78
2023/02/17 07:22:47;;;;;;;7.78;5.72;;;;;;;7.46;100.00;98766.53;4190867;28;20055;-79
2023/02/17 07:24:47;;;;;;;8.52;5.97;;;;;;;7.46;100.00;98761.84;4191587;28;20040;-79
2023/02/17 07:26:48;;;;;;;8.52;5.25;;;;;;;7.48;100.00;98765.03;4191668;28;20115;-79
2023/02/17 07:28:48;;;;;;;8.00;5.45;;;;;;;7.53;100.00;98766.72;4191999;28;20036;-78
2023/02/17 07:30:48;;;;;;;9.07;5.85;;;;;;;7.56;100.00;98766.84;4191174;28;20047;-78
2023/02/17 07:32:49;;;;;;;11.43;6.20;;;;;;;7.54;100.00;98758.13;4190549;28;20045;-78
2023/02/17 07:34:49;;;;;;;9.15;5.85;;;;;;;7.59;100.00;98763.38;4190692;28;20477;-78
2023/02/17 07:36:49;;;;;;;8.48;5.78;;;;;;;7.66;100.00;98764.72;4192621;28;20102;-78
2023/02/17 07:38:50;;;;;;;8.38;5.70;;;;;;;7.67;100.00;98760.81;4191755;28;20377;-79
2023/02/17 07:40:50;;;;;;;9.85;5.80;;;;;;;7.67;100.00;98758.06;4191569;28;20384;-79
2023/02/17 07:42:51;;;;;;;9.13;6.10;;;;;;;7.68;100.00;98759.66;4190626;28;20055;-78
2023/02/17 07:44:51;;;;;;;7.53;5.65;;;;;;;7.73;100.00;98759.41;4189595;28;20044;-78
2023/02/17 07:46:51;;;;;;;8.07;6.15;;;;;;;7.71;100.00;98753.47;4190954;28;20445;-79
2023/02/17 07:48:51;;;;;;;8.63;5.88;;;;;;;7.74;100.00;98763.75;4190596;28;20131;-78
2023/02/17 07:50:52;;;;;;;8.02;5.80;;;;;;;7.72;100.00;98757.81;4192193;28;20079;-79
2023/02/17 07:52:52;;;;;;;7.97;5.28;;;;;;;7.74;100.00;98767.31;4196128;28;20126;-79
2023/02/17 07:54:52;;;;;;;11.10;5.50;;;;;;;7.81;100.00;98764.75;4193610;28;20471;-79
2023/02/17 07:56:53;;;;;;;7.95;5.22;;;;;;;7.83;100.00;98759.69;4190793;28;20418;-78
2023/02/17 07:58:53;;;;;;;9.18;5.25;;;;;;;7.87;100.00;98757.06;4191030;28;20044;-78
2023/02/17 08:00:53;;;;;;;6.70;4.75;;;;;;;7.89;100.00;98754.72;4196872;28;20071;-78
2023/02/17 08:02:54;;;;;;;8.00;4.80;;;;;;;7.94;100.00;98745.41;4190317;28;20429;-78
2023/02/17 08:04:54;;;;;;;7.13;5.25;;;;;;;7.95;100.00;98742.31;4191369;28;20119;-78
2023/02/17 08:06:54;;;;;;;7.50;5.45;;;;;;;7.99;100.00;98756.16;4196691;28;20378;-78
2023/02/17 08:13:34;;;;;;;7.47;4.50;;;;;;;8.05;100.00;98749.25;4191676;28;20082;-78
2023/02/17 08:15:35;;;;;;;6.13;4.93;;;;;;;8.14;100.00;98745.16;4191193;28;20127;-78
2023/02/17 08:17:35;;;;;;;7.13;5.00;;;;;;;8.13;100.00;98746.31;4192853;28;20044;-78
2023/02/17 08:19:35;;;;;;;7.00;5.30;;;;;;;8.14;100.00;98738.84;4194770;28;20159;-78
2023/02/17 08:21:36;;;;;;;7.22;5.28;;;;;;;8.15;100.00;98732.19;4190778;28;20416;-78
2023/02/17 08:23:36;;;;;;;6.22;4.57;;;;;;;8.15;100.00;98730.22;4190518;28;20461;-78
2023/02/17 08:25:36;;;;;;;7.13;4.45;;;;;;;8.17;100.00;98727.09;4190430;28;20037;-78
2023/02/17 08:27:37;;;;;;;6.10;4.38;;;;;;;8.20;100.00;98722.84;4191293;28;20040;-78
2023/02/17 08:29:37;;;;;;;6.55;4.75;;;;;;;8.21;100.00;98725.25;4191257;28;20055;-78
2023/02/17 08:31:37;;;;;;;7.18;5.10;;;;;;;8.26;100.00;98718.66;4190491;28;20048;-78
2023/02/17 08:33:37;;;;;;;8.25;4.50;;;;;;;8.30;100.00;98733.34;4190532;28;20033;-78
2023/02/17 08:35:38;;;;;;;7.40;4.55;;;;;;;8.36;100.00;98716.19;4190533;28;20072;-78
2023/02/17 08:37:38;;;;;;;7.88;4.97;;;;;;;8.30;100.00;98703.81;4192752;28;20055;-78
2023/02/17 08:39:38;;;;;;;7.38;4.78;;;;;;;8.40;100.00;98708.81;4193668;28;20131;-78
2023/02/17 08:41:41;;;;;;;6.85;4.55;;;;;;;8.44;100.00;98714.41;4190558;28;20160;-78
2023/02/17 08:43:42;;;;;;;6.50;4.78;;;;;;;8.44;100.00;98714.41;4190137;28;20063;-78
2023/02/17 08:45:43;;;;;;;6.60;4.20;;;;;;;8.46;100.00;98716.81;4190489;28;20044;-79
2023/02/17 08:47:43;;;;;;;6.93;4.40;;;;;;;8.44;100.00;98708.91;4193805;28;20043;-78
2023/02/17 08:49:43;;;;;;;7.38;4.85;;;;;;;8.42;100.00;98700.16;4196150;28;20059;-78
2023/02/17 08:51:44;;;;;;;6.95;5.13;;;;;;;8.44;100.00;98714.41;4190928;28;20049;-79
2023/02/17 08:53:45;;;;;;;6.10;4.63;;;;;;;8.43;100.00;98707.28;4190522;28;20060;-78
2023/02/17 08:55:45;;;;;;;6.75;4.85;;;;;;;8.47;100.00;98730.22;4190901;28;20386;-78
2023/02/17 08:57:46;;;;;;;6.75;4.60;;;;;;;8.49;100.00;98735.38;4190593;28;20036;-78
2023/02/17 08:59:47;;;;;;;6.13;4.47;;;;;;;8.48;100.00;98725.50;4190575;28;20043;-78
2023/02/17 09:01:47;;;;;;;6.45;4.65;;;;;;;8.49;100.00;98727.09;4190840;28;20044;-78
2023/02/17 09:03:49;;;;;;;6.03;4.50;;;;;;;8.57;100.00;98728.88;4191173;28;20041;-78
2023/02/17 09:05:54;;;;;;;6.05;4.05;;;;;;;8.57;100.00;98731.63;4189577;28;20532;-78
2023/02/17 09:07:54;;;;;;;6.15;4.57;;;;;;;8.61;100.00;98736.09;4190711;28;20123;-78
2023/02/17 09:09:54;;;;;;;7.57;5.00;;;;;;;8.64;100.00;98731.81;4191098;28;20124;-78
2023/02/17 09:11:56;;;;;;;6.15;4.05;;;;;;;8.69;100.00;98735.09;4190279;28;20176;-78
2023/02/17 09:13:56;;;;;;;6.88;4.53;;;;;;;8.76;100.00;98725.34;4190072;28;20090;-78
2023/02/17 09:15:57;;;;;;;6.07;4.40;;;;;;;8.76;100.00;98737.19;4191326;28;20119;-78
2023/02/17 09:17:57;;;;;;;5.32;4.10;;;;;;;8.74;100.00;98750.56;4190401;28;20043;-78
2023/02/17 09:19:57;;;;;;;5.93;4.28;;;;;;;8.79;100.00;98728.22;4190632;28;20037;-78
2023/02/17 09:21:58;;;;;;;5.80;4.20;;;;;;;8.73;100.00;98719.41;4190487;28;20435;-78
2023/02/17 09:23:58;;;;;;;6.22;4.55;;;;;;;8.77;100.00;98729.72;4189956;28;20052;-78
2023/02/17 09:26:07;;;;;;;6.43;4.50;;;;;;;8.80;100.00;98720.75;4194516;28;20056;-79
2023/02/17 09:28:07;;;;;;;6.35;4.25;;;;;;;8.90;100.00;98712.69;4189742;28;20515;-78
2023/02/17 09:30:08;;;;;;;4.88;3.92;;;;;;;8.90;100.00;98701.66;4190689;28;20036;-79
2023/02/17 09:32:08;;;;;;;4.97;3.70;;;;;;;8.97;100.00;98692.72;4192133;28;20052;-78
2023/02/17 09:34:09;;;;;;;5.43;3.53;;;;;;;9.00;100.00;98689.22;4216609;28;20060;-78